Pays
Station

 

Conditions  météo  pour  Grafenwoehr  -  Allemagne    Allemagne

  
12 °C
    
 
 

METAR pour Grafenwoehr :

ETIC 260056Z AUTO 25005KT 9999 OVC060 12/06 A2994 RMK AO2 SLP134 T01150060 $

 

Voici le bulletin pour Grafenwoehr - Allemagne.
 
Le bulletin a été fait il y a 54 minutes, à 00:56 UTC .
Le vent soufflait à la vitesse de 2.6 mètres par seconde de Ouest/Sud-ouest (250°).
 
La température était de 12 °C, avec un point de rosée à 6 °C.
La pression atmosphérique était de 1014 hPa.
L'humidité relative était de 66.7%.
 
Le ciel était nuageux à partir d'une hauteur de 1829 mètres
 
La visibilité globale était de supérieure à 10 kilomètres.
 

 
 
 

Pays :   A   B   C   D   E   F   G   H   I   J   K   L   M   N   O   P   Q   R   S   T   U   V   W   Y   Z

 

Partenaires :  Info Météo avec Met'info
Météo Marine avec MeteoMarine.net
Infos Site  |  Infos Légales  |  Crédits  |  Confidentialité
Contactez-nous  |  Ajouter aux favoris
© 2013-2018 METAR - Tous droits réservés